sensor_id;sensor_type;location;lat;lon;timestamp;P1;durP1;ratioP1;P2;durP2;ratioP2
4756;SDS011;2392;52.578;13.426;2024-03-22T00:00:16;31.80;;;14.03;;
4756;SDS011;2392;52.578;13.426;2024-03-22T00:02:43;32.87;;;15.57;;
4756;SDS011;2392;52.578;13.426;2024-03-22T00:05:09;30.70;;;14.50;;
4756;SDS011;2392;52.578;13.426;2024-03-22T00:07:35;30.23;;;13.30;;
4756;SDS011;2392;52.578;13.426;2024-03-22T00:10:02;34.07;;;15.57;;
4756;SDS011;2392;52.578;13.426;2024-03-22T00:12:29;30.10;;;14.47;;
4756;SDS011;2392;52.578;13.426;2024-03-22T00:14:56;30.77;;;14.70;;
4756;SDS011;2392;52.578;13.426;2024-03-22T00:17:23;33.93;;;14.70;;
4756;SDS011;2392;52.578;13.426;2024-03-22T00:19:48;31.30;;;14.17;;
4756;SDS011;2392;52.578;13.426;2024-03-22T00:22:15;32.60;;;15.00;;
4756;SDS011;2392;52.578;13.426;2024-03-22T00:24:41;30.80;;;14.20;;
4756;SDS011;2392;52.578;13.426;2024-03-22T00:27:07;30.90;;;13.80;;
4756;SDS011;2392;52.578;13.426;2024-03-22T00:29:33;30.73;;;13.93;;
4756;SDS011;2392;52.578;13.426;2024-03-22T00:32:01;34.73;;;15.87;;
4756;SDS011;2392;52.578;13.426;2024-03-22T00:34:27;31.93;;;15.30;;
4756;SDS011;2392;52.578;13.426;2024-03-22T00:36:54;33.27;;;15.33;;
4756;SDS011;2392;52.578;13.426;2024-03-22T00:39:19;34.47;;;16.00;;
4756;SDS011;2392;52.578;13.426;2024-03-22T00:41:46;34.07;;;14.70;;
4756;SDS011;2392;52.578;13.426;2024-03-22T00:44:12;34.43;;;15.03;;
4756;SDS011;2392;52.578;13.426;2024-03-22T00:46:38;33.30;;;15.03;;
4756;SDS011;2392;52.578;13.426;2024-03-22T00:49:05;31.50;;;14.87;;
4756;SDS011;2392;52.578;13.426;2024-03-22T00:51:32;34.30;;;16.23;;
4756;SDS011;2392;52.578;13.426;2024-03-22T00:53:58;34.23;;;15.50;;
4756;SDS011;2392;52.578;13.426;2024-03-22T00:56:24;35.63;;;15.77;;
4756;SDS011;2392;52.578;13.426;2024-03-22T00:58:51;36.40;;;16.00;;
4756;SDS011;2392;52.578;13.426;2024-03-22T01:01:17;34.30;;;15.90;;
4756;SDS011;2392;52.578;13.426;2024-03-22T01:03:43;34.20;;;15.67;;
4756;SDS011;2392;52.578;13.426;2024-03-22T01:06:10;36.20;;;16.83;;
4756;SDS011;2392;52.578;13.426;2024-03-22T01:08:37;33.20;;;16.70;;
4756;SDS011;2392;52.578;13.426;2024-03-22T01:11:03;35.53;;;16.13;;
4756;SDS011;2392;52.578;13.426;2024-03-22T01:13:29;41.10;;;17.00;;
4756;SDS011;2392;52.578;13.426;2024-03-22T01:15:55;35.73;;;16.33;;
4756;SDS011;2392;52.578;13.426;2024-03-22T01:18:22;39.23;;;17.20;;
4756;SDS011;2392;52.578;13.426;2024-03-22T01:20:48;33.97;;;15.83;;
4756;SDS011;2392;52.578;13.426;2024-03-22T01:23:15;35.00;;;16.23;;
4756;SDS011;2392;52.578;13.426;2024-03-22T01:25:41;35.73;;;16.10;;
4756;SDS011;2392;52.578;13.426;2024-03-22T01:28:08;33.20;;;14.93;;
4756;SDS011;2392;52.578;13.426;2024-03-22T01:30:33;34.60;;;16.07;;
4756;SDS011;2392;52.578;13.426;2024-03-22T01:33:01;37.37;;;16.30;;
4756;SDS011;2392;52.578;13.426;2024-03-22T01:35:27;35.67;;;15.90;;
4756;SDS011;2392;52.578;13.426;2024-03-22T01:37:54;44.37;;;16.73;;
4756;SDS011;2392;52.578;13.426;2024-03-22T01:40:21;35.60;;;16.30;;
4756;SDS011;2392;52.578;13.426;2024-03-22T01:42:47;34.07;;;17.13;;
4756;SDS011;2392;52.578;13.426;2024-03-22T01:45:13;40.00;;;17.87;;
4756;SDS011;2392;52.578;13.426;2024-03-22T01:47:41;41.93;;;18.70;;
4756;SDS011;2392;52.578;13.426;2024-03-22T01:50:07;38.13;;;15.93;;
4756;SDS011;2392;52.578;13.426;2024-03-22T01:52:37;41.13;;;17.70;;
4756;SDS011;2392;52.578;13.426;2024-03-22T01:55:04;35.47;;;15.80;;
4756;SDS011;2392;52.578;13.426;2024-03-22T01:57:33;38.17;;;18.30;;
4756;SDS011;2392;52.578;13.426;2024-03-22T01:59:59;43.00;;;18.87;;
4756;SDS011;2392;52.578;13.426;2024-03-22T02:02:26;36.17;;;16.07;;
4756;SDS011;2392;52.578;13.426;2024-03-22T02:04:51;37.10;;;15.80;;
4756;SDS011;2392;52.578;13.426;2024-03-22T02:07:18;38.10;;;17.30;;
4756;SDS011;2392;52.578;13.426;2024-03-22T02:09:44;36.90;;;17.10;;
4756;SDS011;2392;52.578;13.426;2024-03-22T02:12:10;40.17;;;17.47;;
4756;SDS011;2392;52.578;13.426;2024-03-22T02:14:38;38.30;;;17.57;;
4756;SDS011;2392;52.578;13.426;2024-03-22T02:17:05;41.10;;;18.17;;
4756;SDS011;2392;52.578;13.426;2024-03-22T02:19:30;40.57;;;17.60;;
4756;SDS011;2392;52.578;13.426;2024-03-22T02:21:57;38.90;;;16.43;;
4756;SDS011;2392;52.578;13.426;2024-03-22T02:24:24;39.20;;;17.00;;
4756;SDS011;2392;52.578;13.426;2024-03-22T02:26:50;43.13;;;17.37;;
4756;SDS011;2392;52.578;13.426;2024-03-22T02:29:16;36.67;;;16.70;;
4756;SDS011;2392;52.578;13.426;2024-03-22T02:31:43;41.40;;;18.70;;
4756;SDS011;2392;52.578;13.426;2024-03-22T02:34:08;36.93;;;16.67;;
4756;SDS011;2392;52.578;13.426;2024-03-22T02:36:35;37.60;;;16.03;;
4756;SDS011;2392;52.578;13.426;2024-03-22T02:39:01;42.63;;;17.43;;
4756;SDS011;2392;52.578;13.426;2024-03-22T02:41:29;41.93;;;17.60;;
4756;SDS011;2392;52.578;13.426;2024-03-22T02:43:55;37.70;;;16.87;;
4756;SDS011;2392;52.578;13.426;2024-03-22T02:46:21;37.20;;;16.20;;
4756;SDS011;2392;52.578;13.426;2024-03-22T02:48:48;39.67;;;15.90;;
4756;SDS011;2392;52.578;13.426;2024-03-22T02:51:13;39.07;;;16.13;;
4756;SDS011;2392;52.578;13.426;2024-03-22T02:53:40;36.63;;;15.20;;
4756;SDS011;2392;52.578;13.426;2024-03-22T02:56:06;34.33;;;15.47;;
4756;SDS011;2392;52.578;13.426;2024-03-22T02:58:35;35.40;;;15.10;;
4756;SDS011;2392;52.578;13.426;2024-03-22T03:01:01;36.50;;;15.33;;
4756;SDS011;2392;52.578;13.426;2024-03-22T03:03:28;36.07;;;14.73;;
4756;SDS011;2392;52.578;13.426;2024-03-22T03:05:54;32.57;;;14.03;;
4756;SDS011;2392;52.578;13.426;2024-03-22T03:08:20;32.37;;;14.20;;
4756;SDS011;2392;52.578;13.426;2024-03-22T03:10:46;33.80;;;15.10;;
4756;SDS011;2392;52.578;13.426;2024-03-22T03:13:13;34.00;;;14.37;;
4756;SDS011;2392;52.578;13.426;2024-03-22T03:15:40;33.20;;;14.00;;
4756;SDS011;2392;52.578;13.426;2024-03-22T03:18:06;31.70;;;13.97;;
4756;SDS011;2392;52.578;13.426;2024-03-22T03:20:32;36.13;;;15.40;;
4756;SDS011;2392;52.578;13.426;2024-03-22T03:22:58;36.00;;;15.43;;
4756;SDS011;2392;52.578;13.426;2024-03-22T03:25:24;44.80;;;14.07;;
4756;SDS011;2392;52.578;13.426;2024-03-22T03:27:51;32.97;;;15.00;;
4756;SDS011;2392;52.578;13.426;2024-03-22T03:30:17;34.37;;;14.83;;
4756;SDS011;2392;52.578;13.426;2024-03-22T03:32:45;36.50;;;16.00;;
4756;SDS011;2392;52.578;13.426;2024-03-22T03:35:10;34.23;;;15.03;;
4756;SDS011;2392;52.578;13.426;2024-03-22T03:37:37;34.00;;;15.63;;
4756;SDS011;2392;52.578;13.426;2024-03-22T03:40:03;33.50;;;14.90;;
4756;SDS011;2392;52.578;13.426;2024-03-22T03:42:30;32.57;;;14.00;;
4756;SDS011;2392;52.578;13.426;2024-03-22T03:44:56;36.83;;;14.83;;
4756;SDS011;2392;52.578;13.426;2024-03-22T03:47:23;35.53;;;16.27;;
4756;SDS011;2392;52.578;13.426;2024-03-22T03:49:50;36.43;;;16.13;;
4756;SDS011;2392;52.578;13.426;2024-03-22T03:52:17;34.00;;;14.33;;
4756;SDS011;2392;52.578;13.426;2024-03-22T03:54:43;33.60;;;14.20;;
4756;SDS011;2392;52.578;13.426;2024-03-22T03:57:09;34.23;;;15.27;;
4756;SDS011;2392;52.578;13.426;2024-03-22T03:59:35;32.70;;;14.43;;
4756;SDS011;2392;52.578;13.426;2024-03-22T04:02:02;33.73;;;14.83;;
4756;SDS011;2392;52.578;13.426;2024-03-22T04:04:28;34.77;;;14.67;;
4756;SDS011;2392;52.578;13.426;2024-03-22T04:06:56;35.17;;;14.23;;
4756;SDS011;2392;52.578;13.426;2024-03-22T04:09:21;32.67;;;14.47;;
4756;SDS011;2392;52.578;13.426;2024-03-22T04:11:48;35.57;;;14.87;;
4756;SDS011;2392;52.578;13.426;2024-03-22T04:14:14;32.93;;;14.17;;
4756;SDS011;2392;52.578;13.426;2024-03-22T04:16:40;34.50;;;14.17;;
4756;SDS011;2392;52.578;13.426;2024-03-22T04:19:06;34.20;;;15.07;;
4756;SDS011;2392;52.578;13.426;2024-03-22T04:21:33;34.73;;;14.60;;
4756;SDS011;2392;52.578;13.426;2024-03-22T04:24:00;33.10;;;15.17;;
4756;SDS011;2392;52.578;13.426;2024-03-22T04:26:26;39.60;;;16.13;;
4756;SDS011;2392;52.578;13.426;2024-03-22T04:28:52;35.70;;;14.87;;
4756;SDS011;2392;52.578;13.426;2024-03-22T04:31:19;38.53;;;14.87;;
4756;SDS011;2392;52.578;13.426;2024-03-22T04:33:44;35.13;;;15.17;;
4756;SDS011;2392;52.578;13.426;2024-03-22T04:36:11;37.00;;;15.57;;
4756;SDS011;2392;52.578;13.426;2024-03-22T04:38:38;39.10;;;15.50;;
4756;SDS011;2392;52.578;13.426;2024-03-22T04:41:06;35.20;;;14.27;;
4756;SDS011;2392;52.578;13.426;2024-03-22T04:43:33;34.00;;;14.53;;
4756;SDS011;2392;52.578;13.426;2024-03-22T04:45:58;32.50;;;14.43;;
4756;SDS011;2392;52.578;13.426;2024-03-22T04:48:25;35.17;;;14.37;;
4756;SDS011;2392;52.578;13.426;2024-03-22T04:50:51;31.67;;;14.40;;
4756;SDS011;2392;52.578;13.426;2024-03-22T04:53:18;34.87;;;14.40;;
4756;SDS011;2392;52.578;13.426;2024-03-22T04:55:46;34.33;;;14.80;;
4756;SDS011;2392;52.578;13.426;2024-03-22T04:58:14;34.17;;;14.70;;
4756;SDS011;2392;52.578;13.426;2024-03-22T05:00:41;36.13;;;15.10;;
4756;SDS011;2392;52.578;13.426;2024-03-22T05:03:08;30.90;;;13.77;;
4756;SDS011;2392;52.578;13.426;2024-03-22T05:05:34;34.10;;;14.27;;
4756;SDS011;2392;52.578;13.426;2024-03-22T05:08:01;37.67;;;14.87;;
4756;SDS011;2392;52.578;13.426;2024-03-22T05:10:27;32.00;;;13.20;;
4756;SDS011;2392;52.578;13.426;2024-03-22T05:12:54;34.70;;;13.63;;
4756;SDS011;2392;52.578;13.426;2024-03-22T05:15:22;33.00;;;14.40;;
4756;SDS011;2392;52.578;13.426;2024-03-22T05:17:50;37.17;;;14.67;;
4756;SDS011;2392;52.578;13.426;2024-03-22T05:20:16;37.03;;;14.73;;
4756;SDS011;2392;52.578;13.426;2024-03-22T05:22:42;37.20;;;14.83;;
4756;SDS011;2392;52.578;13.426;2024-03-22T05:25:08;33.63;;;14.47;;
4756;SDS011;2392;52.578;13.426;2024-03-22T05:27:35;33.50;;;14.50;;
4756;SDS011;2392;52.578;13.426;2024-03-22T05:30:01;37.43;;;14.97;;
4756;SDS011;2392;52.578;13.426;2024-03-22T05:32:31;34.47;;;15.83;;
4756;SDS011;2392;52.578;13.426;2024-03-22T05:34:57;35.73;;;14.37;;
4756;SDS011;2392;52.578;13.426;2024-03-22T05:37:23;37.20;;;15.10;;
4756;SDS011;2392;52.578;13.426;2024-03-22T05:39:49;36.50;;;14.40;;
4756;SDS011;2392;52.578;13.426;2024-03-22T05:42:16;36.00;;;14.60;;
4756;SDS011;2392;52.578;13.426;2024-03-22T05:44:41;34.50;;;15.00;;
4756;SDS011;2392;52.578;13.426;2024-03-22T05:47:09;34.13;;;15.10;;
4756;SDS011;2392;52.578;13.426;2024-03-22T05:49:36;39.43;;;16.07;;
4756;SDS011;2392;52.578;13.426;2024-03-22T05:52:02;34.43;;;14.97;;
4756;SDS011;2392;52.578;13.426;2024-03-22T05:54:28;34.07;;;14.53;;
4756;SDS011;2392;52.578;13.426;2024-03-22T05:56:55;36.57;;;14.33;;
4756;SDS011;2392;52.578;13.426;2024-03-22T05:59:21;37.80;;;14.23;;
4756;SDS011;2392;52.578;13.426;2024-03-22T06:01:47;35.70;;;15.23;;
4756;SDS011;2392;52.578;13.426;2024-03-22T06:04:13;35.03;;;15.47;;
4756;SDS011;2392;52.578;13.426;2024-03-22T06:06:41;36.47;;;15.50;;
4756;SDS011;2392;52.578;13.426;2024-03-22T06:09:07;36.20;;;14.83;;
4756;SDS011;2392;52.578;13.426;2024-03-22T06:11:36;35.93;;;15.70;;
4756;SDS011;2392;52.578;13.426;2024-03-22T06:14:02;37.50;;;15.40;;
4756;SDS011;2392;52.578;13.426;2024-03-22T06:16:29;34.93;;;14.63;;
4756;SDS011;2392;52.578;13.426;2024-03-22T06:18:54;37.73;;;16.00;;
4756;SDS011;2392;52.578;13.426;2024-03-22T06:21:21;35.60;;;15.40;;
4756;SDS011;2392;52.578;13.426;2024-03-22T06:23:51;34.33;;;14.53;;
4756;SDS011;2392;52.578;13.426;2024-03-22T06:26:18;32.23;;;14.33;;
4756;SDS011;2392;52.578;13.426;2024-03-22T06:28:44;33.47;;;13.97;;
4756;SDS011;2392;52.578;13.426;2024-03-22T06:31:10;35.10;;;14.87;;
4756;SDS011;2392;52.578;13.426;2024-03-22T06:33:36;37.20;;;15.27;;
4756;SDS011;2392;52.578;13.426;2024-03-22T06:36:03;38.17;;;15.30;;
4756;SDS011;2392;52.578;13.426;2024-03-22T06:38:29;36.40;;;16.27;;
4756;SDS011;2392;52.578;13.426;2024-03-22T06:40:57;37.70;;;14.53;;
4756;SDS011;2392;52.578;13.426;2024-03-22T06:43:24;36.87;;;16.37;;
4756;SDS011;2392;52.578;13.426;2024-03-22T06:45:50;34.20;;;14.90;;
4756;SDS011;2392;52.578;13.426;2024-03-22T06:48:16;38.87;;;15.10;;
4756;SDS011;2392;52.578;13.426;2024-03-22T06:50:43;34.57;;;14.93;;
4756;SDS011;2392;52.578;13.426;2024-03-22T06:53:08;34.87;;;15.60;;
4756;SDS011;2392;52.578;13.426;2024-03-22T06:55:36;35.30;;;15.27;;
4756;SDS011;2392;52.578;13.426;2024-03-22T06:58:03;37.70;;;16.33;;
4756;SDS011;2392;52.578;13.426;2024-03-22T07:00:29;36.60;;;15.23;;
4756;SDS011;2392;52.578;13.426;2024-03-22T07:02:55;33.60;;;15.30;;
4756;SDS011;2392;52.578;13.426;2024-03-22T07:05:22;37.97;;;16.00;;
4756;SDS011;2392;52.578;13.426;2024-03-22T07:07:48;33.27;;;14.83;;
4756;SDS011;2392;52.578;13.426;2024-03-22T07:10:15;43.63;;;17.37;;
4756;SDS011;2392;52.578;13.426;2024-03-22T07:12:41;34.07;;;15.53;;
4756;SDS011;2392;52.578;13.426;2024-03-22T07:15:10;34.50;;;15.60;;
4756;SDS011;2392;52.578;13.426;2024-03-22T07:17:35;37.47;;;16.70;;
4756;SDS011;2392;52.578;13.426;2024-03-22T07:20:02;38.20;;;16.23;;
4756;SDS011;2392;52.578;13.426;2024-03-22T07:22:29;35.60;;;15.97;;
4756;SDS011;2392;52.578;13.426;2024-03-22T07:24:56;35.60;;;15.80;;
4756;SDS011;2392;52.578;13.426;2024-03-22T07:27:21;37.57;;;17.17;;
4756;SDS011;2392;52.578;13.426;2024-03-22T07:29:48;37.90;;;16.50;;
4756;SDS011;2392;52.578;13.426;2024-03-22T07:32:15;39.57;;;17.20;;
4756;SDS011;2392;52.578;13.426;2024-03-22T07:34:45;39.23;;;16.60;;
4756;SDS011;2392;52.578;13.426;2024-03-22T07:37:11;38.53;;;18.00;;
4756;SDS011;2392;52.578;13.426;2024-03-22T07:39:37;38.03;;;17.30;;
4756;SDS011;2392;52.578;13.426;2024-03-22T07:42:03;42.57;;;18.23;;
4756;SDS011;2392;52.578;13.426;2024-03-22T07:44:30;38.13;;;17.20;;
4756;SDS011;2392;52.578;13.426;2024-03-22T07:46:56;42.97;;;18.73;;
4756;SDS011;2392;52.578;13.426;2024-03-22T07:49:24;40.93;;;17.57;;
4756;SDS011;2392;52.578;13.426;2024-03-22T07:51:49;40.53;;;18.10;;
4756;SDS011;2392;52.578;13.426;2024-03-22T07:54:18;38.67;;;16.77;;
4756;SDS011;2392;52.578;13.426;2024-03-22T07:56:43;42.43;;;18.17;;
4756;SDS011;2392;52.578;13.426;2024-03-22T07:59:10;37.77;;;17.30;;
4756;SDS011;2392;52.578;13.426;2024-03-22T08:01:37;40.30;;;18.23;;
4756;SDS011;2392;52.578;13.426;2024-03-22T08:04:02;39.90;;;17.30;;
4756;SDS011;2392;52.578;13.426;2024-03-22T08:06:31;40.07;;;18.67;;
4756;SDS011;2392;52.578;13.426;2024-03-22T08:08:57;45.73;;;18.90;;
4756;SDS011;2392;52.578;13.426;2024-03-22T08:11:24;45.37;;;18.50;;
4756;SDS011;2392;52.578;13.426;2024-03-22T08:13:49;45.30;;;18.53;;
4756;SDS011;2392;52.578;13.426;2024-03-22T08:16:16;43.13;;;18.37;;
4756;SDS011;2392;52.578;13.426;2024-03-22T08:18:42;44.07;;;17.70;;
4756;SDS011;2392;52.578;13.426;2024-03-22T08:21:08;39.70;;;18.30;;
4756;SDS011;2392;52.578;13.426;2024-03-22T08:23:35;41.27;;;15.87;;
4756;SDS011;2392;52.578;13.426;2024-03-22T08:26:02;42.00;;;19.53;;
4756;SDS011;2392;52.578;13.426;2024-03-22T08:28:28;41.50;;;18.33;;
4756;SDS011;2392;52.578;13.426;2024-03-22T08:30:55;42.20;;;19.37;;
4756;SDS011;2392;52.578;13.426;2024-03-22T08:33:21;42.53;;;18.27;;
4756;SDS011;2392;52.578;13.426;2024-03-22T08:35:47;40.93;;;19.13;;
4756;SDS011;2392;52.578;13.426;2024-03-22T08:38:13;38.70;;;17.73;;
4756;SDS011;2392;52.578;13.426;2024-03-22T08:40:41;45.00;;;19.17;;
4756;SDS011;2392;52.578;13.426;2024-03-22T08:43:07;38.93;;;17.90;;
4756;SDS011;2392;52.578;13.426;2024-03-22T08:45:33;43.20;;;17.93;;
4756;SDS011;2392;52.578;13.426;2024-03-22T08:47:59;45.73;;;19.27;;
4756;SDS011;2392;52.578;13.426;2024-03-22T08:50:26;39.53;;;18.57;;
4756;SDS011;2392;52.578;13.426;2024-03-22T08:52:52;43.30;;;19.00;;
4756;SDS011;2392;52.578;13.426;2024-03-22T08:55:18;48.50;;;18.90;;
4756;SDS011;2392;52.578;13.426;2024-03-22T08:57:45;41.53;;;18.20;;
4756;SDS011;2392;52.578;13.426;2024-03-22T09:00:12;42.83;;;19.77;;
4756;SDS011;2392;52.578;13.426;2024-03-22T09:02:38;41.63;;;20.07;;
4756;SDS011;2392;52.578;13.426;2024-03-22T09:05:05;41.63;;;17.70;;
4756;SDS011;2392;52.578;13.426;2024-03-22T09:07:33;39.70;;;18.63;;
4756;SDS011;2392;52.578;13.426;2024-03-22T09:10:00;42.40;;;19.93;;
4756;SDS011;2392;52.578;13.426;2024-03-22T09:12:26;40.70;;;18.77;;
4756;SDS011;2392;52.578;13.426;2024-03-22T09:14:54;39.17;;;18.70;;
4756;SDS011;2392;52.578;13.426;2024-03-22T09:17:20;43.40;;;19.60;;
4756;SDS011;2392;52.578;13.426;2024-03-22T09:19:46;40.43;;;18.60;;
4756;SDS011;2392;52.578;13.426;2024-03-22T09:22:12;40.43;;;19.20;;
4756;SDS011;2392;52.578;13.426;2024-03-22T09:24:40;40.57;;;19.23;;
4756;SDS011;2392;52.578;13.426;2024-03-22T09:27:05;44.30;;;20.23;;
4756;SDS011;2392;52.578;13.426;2024-03-22T09:29:33;46.13;;;18.27;;
4756;SDS011;2392;52.578;13.426;2024-03-22T09:32:01;42.80;;;18.93;;
4756;SDS011;2392;52.578;13.426;2024-03-22T09:34:28;45.90;;;20.60;;
4756;SDS011;2392;52.578;13.426;2024-03-22T09:36:54;44.10;;;20.60;;
4756;SDS011;2392;52.578;13.426;2024-03-22T09:39:21;42.33;;;18.80;;
4756;SDS011;2392;52.578;13.426;2024-03-22T09:41:47;46.33;;;19.40;;
4756;SDS011;2392;52.578;13.426;2024-03-22T09:44:18;42.00;;;18.47;;
4756;SDS011;2392;52.578;13.426;2024-03-22T09:46:44;42.50;;;19.03;;
4756;SDS011;2392;52.578;13.426;2024-03-22T09:49:14;42.87;;;18.50;;
4756;SDS011;2392;52.578;13.426;2024-03-22T09:51:41;41.70;;;17.73;;
4756;SDS011;2392;52.578;13.426;2024-03-22T09:54:09;44.53;;;19.43;;
4756;SDS011;2392;52.578;13.426;2024-03-22T09:56:35;45.47;;;19.83;;
4756;SDS011;2392;52.578;13.426;2024-03-22T09:59:05;45.30;;;19.03;;
4756;SDS011;2392;52.578;13.426;2024-03-22T10:01:30;44.70;;;19.63;;
4756;SDS011;2392;52.578;13.426;2024-03-22T10:03:59;43.60;;;18.30;;
4756;SDS011;2392;52.578;13.426;2024-03-22T10:06:26;42.20;;;19.37;;
4756;SDS011;2392;52.578;13.426;2024-03-22T10:08:57;41.43;;;18.80;;
4756;SDS011;2392;52.578;13.426;2024-03-22T10:11:23;43.60;;;20.43;;
4756;SDS011;2392;52.578;13.426;2024-03-22T10:13:52;39.03;;;17.80;;
4756;SDS011;2392;52.578;13.426;2024-03-22T10:16:20;44.67;;;18.70;;
4756;SDS011;2392;52.578;13.426;2024-03-22T10:18:46;43.17;;;18.30;;
4756;SDS011;2392;52.578;13.426;2024-03-22T10:21:16;38.87;;;17.97;;
4756;SDS011;2392;52.578;13.426;2024-03-22T10:23:46;46.27;;;18.60;;
4756;SDS011;2392;52.578;13.426;2024-03-22T10:26:13;44.60;;;18.40;;
4756;SDS011;2392;52.578;13.426;2024-03-22T10:28:44;37.10;;;18.20;;
4756;SDS011;2392;52.578;13.426;2024-03-22T10:31:10;40.13;;;18.20;;
4756;SDS011;2392;52.578;13.426;2024-03-22T10:33:37;40.60;;;19.00;;
4756;SDS011;2392;52.578;13.426;2024-03-22T10:36:05;40.63;;;18.00;;
4756;SDS011;2392;52.578;13.426;2024-03-22T10:38:33;37.13;;;15.87;;
4756;SDS011;2392;52.578;13.426;2024-03-22T10:41:04;43.47;;;19.23;;
4756;SDS011;2392;52.578;13.426;2024-03-22T10:43:31;39.00;;;17.43;;
4756;SDS011;2392;52.578;13.426;2024-03-22T10:46:00;39.07;;;17.33;;
4756;SDS011;2392;52.578;13.426;2024-03-22T10:48:29;39.83;;;18.17;;
4756;SDS011;2392;52.578;13.426;2024-03-22T10:50:58;42.53;;;18.40;;
4756;SDS011;2392;52.578;13.426;2024-03-22T10:53:27;40.07;;;18.13;;
4756;SDS011;2392;52.578;13.426;2024-03-22T10:55:56;43.13;;;16.47;;
4756;SDS011;2392;52.578;13.426;2024-03-22T10:58:27;39.03;;;17.80;;
4756;SDS011;2392;52.578;13.426;2024-03-22T11:00:53;34.90;;;16.53;;
4756;SDS011;2392;52.578;13.426;2024-03-22T11:03:20;38.83;;;15.47;;
4756;SDS011;2392;52.578;13.426;2024-03-22T11:05:48;38.90;;;16.33;;
4756;SDS011;2392;52.578;13.426;2024-03-22T11:08:22;37.40;;;16.10;;
4756;SDS011;2392;52.578;13.426;2024-03-22T11:10:49;37.23;;;16.93;;
4756;SDS011;2392;52.578;13.426;2024-03-22T11:13:16;33.77;;;15.63;;
4756;SDS011;2392;52.578;13.426;2024-03-22T11:15:43;38.73;;;14.33;;
4756;SDS011;2392;52.578;13.426;2024-03-22T11:18:12;36.37;;;14.57;;
4756;SDS011;2392;52.578;13.426;2024-03-22T11:20:38;35.67;;;14.83;;
4756;SDS011;2392;52.578;13.426;2024-03-22T11:23:05;39.77;;;16.10;;
4756;SDS011;2392;52.578;13.426;2024-03-22T11:25:31;40.10;;;14.77;;
4756;SDS011;2392;52.578;13.426;2024-03-22T11:27:58;35.90;;;15.53;;
4756;SDS011;2392;52.578;13.426;2024-03-22T11:30:23;36.37;;;16.17;;
4756;SDS011;2392;52.578;13.426;2024-03-22T11:32:52;37.77;;;15.10;;
4756;SDS011;2392;52.578;13.426;2024-03-22T11:35:17;38.33;;;14.77;;
4756;SDS011;2392;52.578;13.426;2024-03-22T11:37:44;47.93;;;15.97;;
4756;SDS011;2392;52.578;13.426;2024-03-22T11:40:10;33.80;;;15.80;;
4756;SDS011;2392;52.578;13.426;2024-03-22T11:42:37;37.93;;;15.53;;
4756;SDS011;2392;52.578;13.426;2024-03-22T11:45:05;36.83;;;15.77;;
4756;SDS011;2392;52.578;13.426;2024-03-22T11:47:34;38.50;;;15.63;;
4756;SDS011;2392;52.578;13.426;2024-03-22T11:50:02;36.30;;;15.43;;
4756;SDS011;2392;52.578;13.426;2024-03-22T11:52:29;37.40;;;14.93;;
4756;SDS011;2392;52.578;13.426;2024-03-22T11:54:56;41.87;;;16.70;;
4756;SDS011;2392;52.578;13.426;2024-03-22T11:57:22;38.50;;;15.40;;
4756;SDS011;2392;52.578;13.426;2024-03-22T11:59:50;39.13;;;17.37;;
4756;SDS011;2392;52.578;13.426;2024-03-22T12:02:16;41.60;;;17.27;;
4756;SDS011;2392;52.578;13.426;2024-03-22T12:04:42;34.67;;;14.93;;
4756;SDS011;2392;52.578;13.426;2024-03-22T12:07:12;38.83;;;16.13;;
4756;SDS011;2392;52.578;13.426;2024-03-22T12:09:40;35.57;;;16.37;;
4756;SDS011;2392;52.578;13.426;2024-03-22T12:12:06;39.00;;;16.00;;
4756;SDS011;2392;52.578;13.426;2024-03-22T12:14:34;42.00;;;16.10;;
4756;SDS011;2392;52.578;13.426;2024-03-22T12:17:01;43.03;;;17.20;;
4756;SDS011;2392;52.578;13.426;2024-03-22T12:19:28;40.93;;;18.30;;
4756;SDS011;2392;52.578;13.426;2024-03-22T12:21:53;44.87;;;17.80;;
4756;SDS011;2392;52.578;13.426;2024-03-22T12:24:23;41.90;;;18.50;;
4756;SDS011;2392;52.578;13.426;2024-03-22T12:26:48;46.97;;;20.40;;
4756;SDS011;2392;52.578;13.426;2024-03-22T12:29:16;46.07;;;19.63;;
4756;SDS011;2392;52.578;13.426;2024-03-22T12:31:42;43.73;;;18.80;;
4756;SDS011;2392;52.578;13.426;2024-03-22T12:34:09;45.37;;;20.43;;
4756;SDS011;2392;52.578;13.426;2024-03-22T12:36:35;43.87;;;18.93;;
4756;SDS011;2392;52.578;13.426;2024-03-22T12:39:02;38.70;;;18.67;;
4756;SDS011;2392;52.578;13.426;2024-03-22T12:41:29;45.50;;;19.90;;
4756;SDS011;2392;52.578;13.426;2024-03-22T12:43:56;47.30;;;19.63;;
4756;SDS011;2392;52.578;13.426;2024-03-22T12:46:22;45.10;;;19.20;;
4756;SDS011;2392;52.578;13.426;2024-03-22T12:48:49;44.73;;;17.93;;
4756;SDS011;2392;52.578;13.426;2024-03-22T12:51:15;43.00;;;18.77;;
4756;SDS011;2392;52.578;13.426;2024-03-22T12:53:42;52.20;;;19.30;;
4756;SDS011;2392;52.578;13.426;2024-03-22T12:56:08;43.80;;;18.67;;
4756;SDS011;2392;52.578;13.426;2024-03-22T12:58:37;43.63;;;19.33;;
4756;SDS011;2392;52.578;13.426;2024-03-22T13:01:03;46.90;;;19.87;;
4756;SDS011;2392;52.578;13.426;2024-03-22T13:03:31;42.07;;;18.53;;
4756;SDS011;2392;52.578;13.426;2024-03-22T13:05:57;45.87;;;19.20;;
4756;SDS011;2392;52.578;13.426;2024-03-22T13:08:24;42.67;;;17.87;;
4756;SDS011;2392;52.578;13.426;2024-03-22T13:10:50;48.10;;;20.07;;
4756;SDS011;2392;52.578;13.426;2024-03-22T13:13:17;43.53;;;18.90;;
4756;SDS011;2392;52.578;13.426;2024-03-22T13:15:44;46.23;;;19.37;;
4756;SDS011;2392;52.578;13.426;2024-03-22T13:18:12;48.30;;;19.30;;
4756;SDS011;2392;52.578;13.426;2024-03-22T13:20:38;41.57;;;18.20;;
4756;SDS011;2392;52.578;13.426;2024-03-22T13:23:04;44.87;;;18.80;;
4756;SDS011;2392;52.578;13.426;2024-03-22T13:25:30;43.13;;;18.63;;
4756;SDS011;2392;52.578;13.426;2024-03-22T13:27:57;41.70;;;18.17;;
4756;SDS011;2392;52.578;13.426;2024-03-22T13:30:23;42.90;;;18.53;;
4756;SDS011;2392;52.578;13.426;2024-03-22T13:32:50;43.40;;;19.00;;
4756;SDS011;2392;52.578;13.426;2024-03-22T13:35:16;43.63;;;18.40;;
4756;SDS011;2392;52.578;13.426;2024-03-22T13:37:43;44.07;;;19.33;;
4756;SDS011;2392;52.578;13.426;2024-03-22T13:40:09;36.87;;;17.00;;
4756;SDS011;2392;52.578;13.426;2024-03-22T13:42:36;43.30;;;17.50;;
4756;SDS011;2392;52.578;13.426;2024-03-22T13:45:02;37.90;;;16.03;;
4756;SDS011;2392;52.578;13.426;2024-03-22T13:47:29;39.87;;;16.37;;
4756;SDS011;2392;52.578;13.426;2024-03-22T13:49:56;37.43;;;15.37;;
4756;SDS011;2392;52.578;13.426;2024-03-22T13:52:23;35.00;;;16.60;;
4756;SDS011;2392;52.578;13.426;2024-03-22T13:54:49;40.97;;;16.90;;
4756;SDS011;2392;52.578;13.426;2024-03-22T13:57:16;44.87;;;16.70;;
4756;SDS011;2392;52.578;13.426;2024-03-22T13:59:41;36.57;;;15.57;;
4756;SDS011;2392;52.578;13.426;2024-03-22T14:02:08;35.03;;;14.93;;
4756;SDS011;2392;52.578;13.426;2024-03-22T14:04:34;33.90;;;14.67;;
4756;SDS011;2392;52.578;13.426;2024-03-22T14:07:02;33.73;;;14.53;;
4756;SDS011;2392;52.578;13.426;2024-03-22T14:09:30;33.47;;;14.10;;
4756;SDS011;2392;52.578;13.426;2024-03-22T14:11:56;34.83;;;13.77;;
4756;SDS011;2392;52.578;13.426;2024-03-22T14:14:22;33.47;;;14.30;;
4756;SDS011;2392;52.578;13.426;2024-03-22T14:16:49;34.67;;;14.00;;
4756;SDS011;2392;52.578;13.426;2024-03-22T14:19:16;34.37;;;14.63;;
4756;SDS011;2392;52.578;13.426;2024-03-22T14:21:44;36.57;;;14.80;;
4756;SDS011;2392;52.578;13.426;2024-03-22T14:24:11;34.93;;;14.60;;
4756;SDS011;2392;52.578;13.426;2024-03-22T14:26:38;32.23;;;13.57;;
4756;SDS011;2392;52.578;13.426;2024-03-22T14:29:07;34.23;;;12.77;;